sensor_id;sensor_type;location;lat;lon;timestamp;pressure;altitude;pressure_sealevel;temperature;humidity
31357;BME280;60001;48.404;11.738;2023-01-24T00:00:59;97564.16;;;2.15;82.92
31357;BME280;60001;48.404;11.738;2023-01-24T00:02:31;97565.00;;;2.16;83.44
31357;BME280;60001;48.404;11.738;2023-01-24T00:04:04;97554.75;;;2.06;83.10
31357;BME280;60001;48.404;11.738;2023-01-24T00:05:37;97557.97;;;2.08;83.37
31357;BME280;60001;48.404;11.738;2023-01-24T00:07:08;97555.72;;;2.05;83.00
31357;BME280;60001;48.404;11.738;2023-01-24T00:08:40;97564.34;;;2.06;83.60
31357;BME280;60001;48.404;11.738;2023-01-24T00:10:12;97565.97;;;2.07;83.47
31357;BME280;60001;48.404;11.738;2023-01-24T00:11:44;97574.78;;;2.06;83.86
31357;BME280;60001;48.404;11.738;2023-01-24T00:13:16;97561.56;;;2.07;83.99
31357;BME280;60001;48.404;11.738;2023-01-24T00:14:48;97571.69;;;1.94;84.57
31357;BME280;60001;48.404;11.738;2023-01-24T00:16:21;97570.56;;;1.97;83.68
31357;BME280;60001;48.404;11.738;2023-01-24T00:17:56;97565.81;;;2.00;84.15
31357;BME280;60001;48.404;11.738;2023-01-24T00:19:29;97571.34;;;2.05;83.59
31357;BME280;60001;48.404;11.738;2023-01-24T00:21:02;97562.91;;;2.03;83.50
31357;BME280;60001;48.404;11.738;2023-01-24T00:22:32;97571.00;;;2.08;84.22
31357;BME280;60001;48.404;11.738;2023-01-24T00:24:05;97571.19;;;2.07;83.43
31357;BME280;60001;48.404;11.738;2023-01-24T00:25:36;97571.38;;;1.97;83.40
31357;BME280;60001;48.404;11.738;2023-01-24T00:27:08;97564.84;;;2.01;84.11
31357;BME280;60001;48.404;11.738;2023-01-24T00:28:40;97565.34;;;2.05;83.53
31357;BME280;60001;48.404;11.738;2023-01-24T00:30:14;97566.97;;;1.98;84.45
31357;BME280;60001;48.404;11.738;2023-01-24T00:31:46;97558.03;;;1.92;84.39
31357;BME280;60001;48.404;11.738;2023-01-24T00:33:18;97566.16;;;1.97;84.40
31357;BME280;60001;48.404;11.738;2023-01-24T00:34:50;97565.22;;;1.82;84.91
31357;BME280;60001;48.404;11.738;2023-01-24T00:36:22;97560.31;;;1.95;84.62
31357;BME280;60001;48.404;11.738;2023-01-24T00:37:54;97565.81;;;2.00;84.46
31357;BME280;60001;48.404;11.738;2023-01-24T00:39:25;97562.41;;;2.00;84.82
31357;BME280;60001;48.404;11.738;2023-01-24T00:40:57;97560.16;;;1.97;84.43
31357;BME280;60001;48.404;11.738;2023-01-24T00:42:28;97569.25;;;2.01;84.57
31357;BME280;60001;48.404;11.738;2023-01-24T00:44:00;97574.78;;;1.98;84.60
31357;BME280;60001;48.404;11.738;2023-01-24T00:45:35;97575.44;;;1.91;84.70
31357;BME280;60001;48.404;11.738;2023-01-24T00:47:07;97571.69;;;1.94;84.81
31357;BME280;60001;48.404;11.738;2023-01-24T00:48:38;97574.31;;;1.94;85.29
31357;BME280;60001;48.404;11.738;2023-01-24T00:50:11;97575.44;;;2.00;85.19
31357;BME280;60001;48.404;11.738;2023-01-24T00:51:43;97571.22;;;1.90;85.07
31357;BME280;60001;48.404;11.738;2023-01-24T00:53:15;97574.00;;;1.89;85.53
31357;BME280;60001;48.404;11.738;2023-01-24T00:54:46;97571.41;;;1.89;84.91
31357;BME280;60001;48.404;11.738;2023-01-24T00:56:18;97580.84;;;1.90;85.26
31357;BME280;60001;48.404;11.738;2023-01-24T00:57:50;97580.03;;;1.89;85.60
31357;BME280;60001;48.404;11.738;2023-01-24T00:59:21;97578.69;;;1.93;85.60
31357;BME280;60001;48.404;11.738;2023-01-24T01:00:55;97579.19;;;1.97;85.43
31357;BME280;60001;48.404;11.738;2023-01-24T01:02:26;97586.19;;;1.97;84.94
31357;BME280;60001;48.404;11.738;2023-01-24T01:03:58;97574.63;;;1.99;84.70
31357;BME280;60001;48.404;11.738;2023-01-24T01:05:31;97586.00;;;2.06;84.65
31357;BME280;60001;48.404;11.738;2023-01-24T01:07:03;97578.81;;;2.08;84.83
31357;BME280;60001;48.404;11.738;2023-01-24T01:08:35;97587.94;;;2.12;84.77
31357;BME280;60001;48.404;11.738;2023-01-24T01:10:08;97592.53;;;2.10;84.20
31357;BME280;60001;48.404;11.738;2023-01-24T01:11:40;97590.06;;;2.01;85.25
31357;BME280;60001;48.404;11.738;2023-01-24T01:13:12;97593.66;;;2.08;84.74
31357;BME280;60001;48.404;11.738;2023-01-24T01:14:44;97588.28;;;2.09;84.50
31357;BME280;60001;48.404;11.738;2023-01-24T01:16:18;97590.88;;;2.01;84.53
31357;BME280;60001;48.404;11.738;2023-01-24T01:17:50;97590.88;;;2.01;85.14
31357;BME280;60001;48.404;11.738;2023-01-24T01:19:21;97591.88;;;2.00;85.04
31357;BME280;60001;48.404;11.738;2023-01-24T01:20:54;97582.75;;;2.04;84.77
31357;BME280;60001;48.404;11.738;2023-01-24T01:22:26;97591.38;;;2.05;84.27
31357;BME280;60001;48.404;11.738;2023-01-24T01:23:56;97587.16;;;2.04;84.75
31357;BME280;60001;48.404;11.738;2023-01-24T01:25:28;97583.91;;;2.02;84.48
31357;BME280;60001;48.404;11.738;2023-01-24T01:27:01;97595.28;;;2.01;85.18
31357;BME280;60001;48.404;11.738;2023-01-24T01:28:33;97594.97;;;2.04;84.55
31357;BME280;60001;48.404;11.738;2023-01-24T01:30:06;97596.25;;;2.08;84.51
31357;BME280;60001;48.404;11.738;2023-01-24T01:31:39;97580.16;;;2.04;84.81
31357;BME280;60001;48.404;11.738;2023-01-24T01:33:10;97587.94;;;2.12;85.21
31357;BME280;60001;48.404;11.738;2023-01-24T01:34:41;97592.66;;;2.17;84.38
31357;BME280;60001;48.404;11.738;2023-01-24T01:36:15;97592.50;;;2.18;84.72
31357;BME280;60001;48.404;11.738;2023-01-24T01:37:46;97582.38;;;2.15;84.54
31357;BME280;60001;48.404;11.738;2023-01-24T01:39:18;97600.16;;;2.12;84.08
31357;BME280;60001;48.404;11.738;2023-01-24T01:40:50;97605.53;;;2.18;84.36
31357;BME280;60001;48.404;11.738;2023-01-24T01:42:22;97592.31;;;2.20;84.29
31357;BME280;60001;48.404;11.738;2023-01-24T01:43:54;97593.13;;;2.20;84.41
31357;BME280;60001;48.404;11.738;2023-01-24T01:45:45;97589.56;;;2.13;84.91
31357;BME280;60001;48.404;11.738;2023-01-24T01:47:23;97590.06;;;2.17;84.19
31357;BME280;60001;48.404;11.738;2023-01-24T01:49:01;97594.47;;;2.16;84.22
31357;BME280;60001;48.404;11.738;2023-01-24T01:50:39;97597.88;;;2.17;84.87
31357;BME280;60001;48.404;11.738;2023-01-24T01:52:12;97597.72;;;2.18;84.70
31357;BME280;60001;48.404;11.738;2023-01-24T01:53:49;97596.25;;;2.16;84.15
31357;BME280;60001;48.404;11.738;2023-01-24T01:55:29;97598.88;;;2.16;84.87
31357;BME280;60001;48.404;11.738;2023-01-24T01:57:08;97591.38;;;2.13;84.33
31357;BME280;60001;48.404;11.738;2023-01-24T01:58:43;97595.16;;;2.02;84.94
31357;BME280;60001;48.404;11.738;2023-01-24T02:00:17;97591.38;;;2.05;84.80
31357;BME280;60001;48.404;11.738;2023-01-24T02:01:52;97602.97;;;2.02;85.25
31357;BME280;60001;48.404;11.738;2023-01-24T02:03:32;97603.78;;;2.03;85.48
31357;BME280;60001;48.404;11.738;2023-01-24T02:05:11;97599.53;;;1.93;85.75
31357;BME280;60001;48.404;11.738;2023-01-24T02:06:54;97597.75;;;1.94;85.69
31357;BME280;60001;48.404;11.738;2023-01-24T02:08:29;97591.91;;;1.92;85.72
31357;BME280;60001;48.404;11.738;2023-01-24T02:10:03;97592.69;;;1.92;85.21
31357;BME280;60001;48.404;11.738;2023-01-24T02:11:38;97588.66;;;1.82;85.54
31357;BME280;60001;48.404;11.738;2023-01-24T02:13:09;97582.81;;;1.88;85.95
31357;BME280;60001;48.404;11.738;2023-01-24T02:14:41;97594.19;;;1.95;86.00
31357;BME280;60001;48.404;11.738;2023-01-24T02:16:32;97587.66;;;1.99;85.87
31357;BME280;60001;48.404;11.738;2023-01-24T02:18:04;97582.59;;;1.98;85.25
31357;BME280;60001;48.404;11.738;2023-01-24T02:19:50;97585.22;;;1.98;85.50
31357;BME280;60001;48.404;11.738;2023-01-24T02:21:28;97582.31;;;1.84;85.54
31357;BME280;60001;48.404;11.738;2023-01-24T02:23:11;97593.88;;;1.82;86.45
31357;BME280;60001;48.404;11.738;2023-01-24T02:24:59;97590.63;;;1.88;86.34
31357;BME280;60001;48.404;11.738;2023-01-24T02:26:33;97598.72;;;1.93;85.88
31357;BME280;60001;48.404;11.738;2023-01-24T02:28:06;97593.19;;;1.96;86.05
31357;BME280;60001;48.404;11.738;2023-01-24T02:29:39;97596.44;;;1.98;85.52
31357;BME280;60001;48.404;11.738;2023-01-24T02:31:11;97592.69;;;2.01;85.78
31357;BME280;60001;48.404;11.738;2023-01-24T02:32:43;97587.81;;;1.98;85.62
31357;BME280;60001;48.404;11.738;2023-01-24T02:34:14;97590.44;;;1.98;85.52
31357;BME280;60001;48.404;11.738;2023-01-24T02:35:46;97588.00;;;1.96;85.37
31357;BME280;60001;48.404;11.738;2023-01-24T02:37:19;97581.00;;;1.97;85.90
31357;BME280;60001;48.404;11.738;2023-01-24T02:38:56;97580.31;;;1.95;85.07
31357;BME280;60001;48.404;11.738;2023-01-24T02:40:31;97573.66;;;1.92;85.30
31357;BME280;60001;48.404;11.738;2023-01-24T02:42:09;97586.03;;;1.98;85.50
31357;BME280;60001;48.404;11.738;2023-01-24T02:43:46;97583.91;;;1.93;85.18
31357;BME280;60001;48.404;11.738;2023-01-24T02:45:23;97576.91;;;1.86;85.77
31357;BME280;60001;48.404;11.738;2023-01-24T02:46:55;97592.22;;;1.97;85.62
31357;BME280;60001;48.404;11.738;2023-01-24T02:48:27;97587.47;;;2.01;85.91
31357;BME280;60001;48.404;11.738;2023-01-24T02:49:59;97592.69;;;2.01;85.85
31357;BME280;60001;48.404;11.738;2023-01-24T02:51:30;97589.28;;;2.00;85.56
31357;BME280;60001;48.404;11.738;2023-01-24T02:53:20;97586.50;;;1.93;85.19
31357;BME280;60001;48.404;11.738;2023-01-24T02:55:01;97591.25;;;1.98;85.76
31357;BME280;60001;48.404;11.738;2023-01-24T02:56:32;97588.00;;;1.96;85.12
31357;BME280;60001;48.404;11.738;2023-01-24T02:58:23;97593.84;;;1.98;85.11
31357;BME280;60001;48.404;11.738;2023-01-24T02:59:55;97592.38;;;1.96;85.10
31357;BME280;60001;48.404;11.738;2023-01-24T03:01:26;97592.03;;;1.99;85.02
31357;BME280;60001;48.404;11.738;2023-01-24T03:02:58;97594.66;;;1.99;84.88
31357;BME280;60001;48.404;11.738;2023-01-24T03:04:30;97578.88;;;1.92;85.38
31357;BME280;60001;48.404;11.738;2023-01-24T03:06:02;97588.97;;;1.95;85.34
31357;BME280;60001;48.404;11.738;2023-01-24T03:07:34;97590.59;;;1.96;85.53
31357;BME280;60001;48.404;11.738;2023-01-24T03:09:15;97579.22;;;1.81;85.72
31357;BME280;60001;48.404;11.738;2023-01-24T03:10:49;97592.53;;;1.94;85.64
31357;BME280;60001;48.404;11.738;2023-01-24T03:12:20;97591.06;;;2.00;85.44
31357;BME280;60001;48.404;11.738;2023-01-24T03:14:11;97590.56;;;2.04;84.96
31357;BME280;60001;48.404;11.738;2023-01-24T03:16:00;97590.09;;;2.09;84.76
31357;BME280;60001;48.404;11.738;2023-01-24T03:17:50;97597.72;;;2.10;85.03
31357;BME280;60001;48.404;11.738;2023-01-24T03:19:39;97594.63;;;2.07;84.49
31357;BME280;60001;48.404;11.738;2023-01-24T03:21:31;97584.25;;;1.90;84.62
31357;BME280;60001;48.404;11.738;2023-01-24T03:23:21;97574.47;;;1.92;84.94
31357;BME280;60001;48.404;11.738;2023-01-24T03:25:10;97596.28;;;2.00;84.15
31357;BME280;60001;48.404;11.738;2023-01-24T03:26:59;97596.63;;;1.97;85.09
31357;BME280;60001;48.404;11.738;2023-01-24T03:28:49;97595.28;;;2.01;84.56
31357;BME280;60001;48.404;11.738;2023-01-24T03:30:40;97601.81;;;2.05;84.78
31357;BME280;60001;48.404;11.738;2023-01-24T03:32:29;97607.47;;;2.08;84.71
31357;BME280;60001;48.404;11.738;2023-01-24T03:34:18;97602.78;;;2.12;84.96
31357;BME280;60001;48.404;11.738;2023-01-24T03:36:03;97607.50;;;2.16;84.83
31357;BME280;60001;48.404;11.738;2023-01-24T03:37:36;97599.69;;;2.16;83.96
31357;BME280;60001;48.404;11.738;2023-01-24T03:39:26;97603.09;;;2.17;84.41
31357;BME280;60001;48.404;11.738;2023-01-24T03:41:15;97608.94;;;2.19;84.16
31357;BME280;60001;48.404;11.738;2023-01-24T03:42:47;97613.16;;;2.20;84.13
31357;BME280;60001;48.404;11.738;2023-01-24T03:44:19;97615.78;;;2.20;83.80
31357;BME280;60001;48.404;11.738;2023-01-24T03:45:52;97615.66;;;2.05;84.33
31357;BME280;60001;48.404;11.738;2023-01-24T03:47:27;97614.50;;;2.08;84.04
31357;BME280;60001;48.404;11.738;2023-01-24T03:48:59;97620.50;;;2.08;84.22
31357;BME280;60001;48.404;11.738;2023-01-24T03:50:32;97619.56;;;2.09;83.86
31357;BME280;60001;48.404;11.738;2023-01-24T03:52:21;97621.19;;;2.10;83.98
31357;BME280;60001;48.404;11.738;2023-01-24T03:53:58;97619.22;;;2.12;84.06
31357;BME280;60001;48.404;11.738;2023-01-24T03:55:29;97611.56;;;2.11;83.92
31357;BME280;60001;48.404;11.738;2023-01-24T03:57:01;97616.59;;;2.12;84.11
31357;BME280;60001;48.404;11.738;2023-01-24T03:58:33;97607.81;;;2.13;83.82
31357;BME280;60001;48.404;11.738;2023-01-24T04:00:07;97616.94;;;2.17;84.43
31357;BME280;60001;48.404;11.738;2023-01-24T04:01:41;97615.44;;;2.15;84.32
31357;BME280;60001;48.404;11.738;2023-01-24T04:03:13;97619.03;;;2.14;84.10
31357;BME280;60001;48.404;11.738;2023-01-24T04:04:45;97616.94;;;2.17;84.22
31357;BME280;60001;48.404;11.738;2023-01-24T04:06:34;97614.97;;;2.19;84.15
31357;BME280;60001;48.404;11.738;2023-01-24T04:08:06;97614.16;;;2.19;83.70
31357;BME280;60001;48.404;11.738;2023-01-24T04:09:38;97614.63;;;2.14;83.96
31357;BME280;60001;48.404;11.738;2023-01-24T04:11:09;97624.09;;;2.07;83.95
31357;BME280;60001;48.404;11.738;2023-01-24T04:12:42;97624.75;;;2.01;84.44
31357;BME280;60001;48.404;11.738;2023-01-24T04:14:14;97625.59;;;2.02;83.85
31357;BME280;60001;48.404;11.738;2023-01-24T04:15:46;97620.50;;;2.08;83.80
31357;BME280;60001;48.404;11.738;2023-01-24T04:17:19;97618.41;;;2.12;84.31
31357;BME280;60001;48.404;11.738;2023-01-24T04:18:50;97615.78;;;2.12;84.08
31357;BME280;60001;48.404;11.738;2023-01-24T04:20:22;97614.19;;;2.11;84.20
31357;BME280;60001;48.404;11.738;2023-01-24T04:21:54;97613.81;;;2.14;84.12
31357;BME280;60001;48.404;11.738;2023-01-24T04:23:27;97626.69;;;2.15;83.92
31357;BME280;60001;48.404;11.738;2023-01-24T04:24:59;97608.63;;;2.06;84.23
31357;BME280;60001;48.404;11.738;2023-01-24T04:26:31;97617.78;;;2.02;83.77
31357;BME280;60001;48.404;11.738;2023-01-24T04:28:03;97607.38;;;2.02;84.12
31357;BME280;60001;48.404;11.738;2023-01-24T04:29:34;97617.91;;;2.08;84.44
31357;BME280;60001;48.404;11.738;2023-01-24T04:31:05;97618.41;;;2.12;83.70
31357;BME280;60001;48.404;11.738;2023-01-24T04:32:39;97619.72;;;2.16;83.71
31357;BME280;60001;48.404;11.738;2023-01-24T04:34:10;97615.31;;;2.16;83.80
31357;BME280;60001;48.404;11.738;2023-01-24T04:35:41;97615.44;;;2.15;83.73
31357;BME280;60001;48.404;11.738;2023-01-24T04:37:14;97609.75;;;2.19;83.42
31357;BME280;60001;48.404;11.738;2023-01-24T04:38:46;97612.03;;;2.23;83.41
31357;BME280;60001;48.404;11.738;2023-01-24T04:40:18;97610.88;;;2.25;83.31
31357;BME280;60001;48.404;11.738;2023-01-24T04:41:48;97603.56;;;2.20;83.37
31357;BME280;60001;48.404;11.738;2023-01-24T04:43:20;97609.25;;;2.24;83.12
31357;BME280;60001;48.404;11.738;2023-01-24T04:44:52;97609.75;;;2.19;83.55
31357;BME280;60001;48.404;11.738;2023-01-24T04:46:24;97607.00;;;2.13;83.74
31357;BME280;60001;48.404;11.738;2023-01-24T04:47:57;97608.44;;;2.15;83.08
31357;BME280;60001;48.404;11.738;2023-01-24T04:49:29;97608.16;;;2.10;83.72
31357;BME280;60001;48.404;11.738;2023-01-24T04:51:01;97613.03;;;2.13;83.34
31357;BME280;60001;48.404;11.738;2023-01-24T04:52:33;97609.44;;;2.14;83.29
31357;BME280;60001;48.404;11.738;2023-01-24T04:54:05;97607.31;;;2.18;83.20
31357;BME280;60001;48.404;11.738;2023-01-24T04:55:38;97619.19;;;2.20;82.98
31357;BME280;60001;48.404;11.738;2023-01-24T04:57:11;97618.22;;;2.13;83.70
31357;BME280;60001;48.404;11.738;2023-01-24T04:58:43;97618.88;;;2.15;83.98
31357;BME280;60001;48.404;11.738;2023-01-24T05:00:15;97611.41;;;2.12;84.00
31357;BME280;60001;48.404;11.738;2023-01-24T05:01:47;97608.97;;;2.11;83.69
31357;BME280;60001;48.404;11.738;2023-01-24T05:03:19;97616.75;;;2.19;83.51
31357;BME280;60001;48.404;11.738;2023-01-24T05:04:51;97629.47;;;2.14;83.82
31357;BME280;60001;48.404;11.738;2023-01-24T05:06:23;97623.63;;;2.12;83.49
31357;BME280;60001;48.404;11.738;2023-01-24T05:07:54;97624.78;;;1.93;83.48
31357;BME280;60001;48.404;11.738;2023-01-24T05:09:25;97627.72;;;1.90;85.05
31357;BME280;60001;48.404;11.738;2023-01-24T05:11:00;97617.78;;;1.93;84.41
31357;BME280;60001;48.404;11.738;2023-01-24T05:12:32;97629.50;;;1.89;84.56
31357;BME280;60001;48.404;11.738;2023-01-24T05:14:04;97623.31;;;1.99;84.21
31357;BME280;60001;48.404;11.738;2023-01-24T05:15:35;97624.28;;;2.06;84.54
31357;BME280;60001;48.404;11.738;2023-01-24T05:17:07;97625.22;;;2.13;83.91
31357;BME280;60001;48.404;11.738;2023-01-24T05:18:41;97619.53;;;2.17;84.12
31357;BME280;60001;48.404;11.738;2023-01-24T05:20:13;97627.19;;;2.19;83.44
31357;BME280;60001;48.404;11.738;2023-01-24T05:21:45;97621.97;;;2.19;83.89
31357;BME280;60001;48.404;11.738;2023-01-24T05:23:16;97611.06;;;2.15;83.39
31357;BME280;60001;48.404;11.738;2023-01-24T05:24:48;97616.75;;;2.27;83.14
31357;BME280;60001;48.404;11.738;2023-01-24T05:26:23;97614.00;;;2.12;83.51
31357;BME280;60001;48.404;11.738;2023-01-24T05:27:55;97623.94;;;2.17;83.53
31357;BME280;60001;48.404;11.738;2023-01-24T05:29:27;97615.78;;;2.20;83.76
31357;BME280;60001;48.404;11.738;2023-01-24T05:30:59;97625.72;;;2.25;83.60
31357;BME280;60001;48.404;11.738;2023-01-24T05:32:31;97624.22;;;2.22;82.98
31357;BME280;60001;48.404;11.738;2023-01-24T05:34:04;97621.81;;;2.20;83.71
31357;BME280;60001;48.404;11.738;2023-01-24T05:35:36;97617.25;;;2.14;83.50
31357;BME280;60001;48.404;11.738;2023-01-24T05:37:09;97618.72;;;2.17;83.51
31357;BME280;60001;48.404;11.738;2023-01-24T05:38:41;97623.13;;;2.08;83.07
31357;BME280;60001;48.404;11.738;2023-01-24T05:40:13;97621.03;;;2.04;83.57
31357;BME280;60001;48.404;11.738;2023-01-24T05:41:45;97628.50;;;2.07;84.21
31357;BME280;60001;48.404;11.738;2023-01-24T05:43:16;97629.81;;;2.11;83.31
31357;BME280;60001;48.404;11.738;2023-01-24T05:44:47;97633.22;;;2.11;83.56
31357;BME280;60001;48.404;11.738;2023-01-24T05:46:21;97630.94;;;2.08;83.58
31357;BME280;60001;48.404;11.738;2023-01-24T05:47:53;97635.03;;;2.03;83.58
31357;BME280;60001;48.404;11.738;2023-01-24T05:49:27;97626.41;;;2.02;83.94
31357;BME280;60001;48.404;11.738;2023-01-24T05:51:01;97630.81;;;2.02;83.64
31357;BME280;60001;48.404;11.738;2023-01-24T05:52:33;97628.19;;;2.02;83.61
31357;BME280;60001;48.404;11.738;2023-01-24T05:54:05;97636.16;;;2.00;83.63
31357;BME280;60001;48.404;11.738;2023-01-24T05:55:37;97640.88;;;2.05;83.67
31357;BME280;60001;48.404;11.738;2023-01-24T05:57:08;97642.03;;;2.02;83.62
31357;BME280;60001;48.404;11.738;2023-01-24T05:58:42;97645.94;;;2.06;84.17
31357;BME280;60001;48.404;11.738;2023-01-24T06:00:15;97647.88;;;2.12;83.79
31357;BME280;60001;48.404;11.738;2023-01-24T06:01:47;97645.09;;;2.14;83.69
31357;BME280;60001;48.404;11.738;2023-01-24T06:03:20;97646.75;;;1.99;84.07
31357;BME280;60001;48.404;11.738;2023-01-24T06:04:53;97655.88;;;2.11;84.00
31357;BME280;60001;48.404;11.738;2023-01-24T06:06:27;97647.22;;;2.18;83.57
31357;BME280;60001;48.404;11.738;2023-01-24T06:07:58;97655.69;;;2.20;83.04
31357;BME280;60001;48.404;11.738;2023-01-24T06:09:30;97646.56;;;2.16;83.57
31357;BME280;60001;48.404;11.738;2023-01-24T06:11:04;97659.09;;;2.13;83.21
31357;BME280;60001;48.404;11.738;2023-01-24T06:12:36;97649.84;;;2.10;83.64
31357;BME280;60001;48.404;11.738;2023-01-24T06:14:08;97653.59;;;2.16;82.91
31357;BME280;60001;48.404;11.738;2023-01-24T06:15:40;97649.69;;;2.04;83.47
31357;BME280;60001;48.404;11.738;2023-01-24T06:17:11;97649.69;;;2.04;83.43
31357;BME280;60001;48.404;11.738;2023-01-24T06:18:43;97665.63;;;2.17;83.72
31357;BME280;60001;48.404;11.738;2023-01-24T06:20:17;97657.97;;;2.15;83.09
31357;BME280;60001;48.404;11.738;2023-01-24T06:21:57;97661.06;;;2.19;83.49
31357;BME280;60001;48.404;11.738;2023-01-24T06:23:32;97659.09;;;2.13;83.05
31357;BME280;60001;48.404;11.738;2023-01-24T06:25:09;97655.72;;;2.04;83.26
31357;BME280;60001;48.404;11.738;2023-01-24T06:26:44;97653.75;;;2.06;83.50
31357;BME280;60001;48.404;11.738;2023-01-24T06:28:16;97667.91;;;2.12;83.13
31357;BME280;60001;48.404;11.738;2023-01-24T06:29:49;97653.56;;;2.08;83.75
31357;BME280;60001;48.404;11.738;2023-01-24T06:31:29;97666.28;;;2.19;83.63
31357;BME280;60001;48.404;11.738;2023-01-24T06:33:21;97685.66;;;2.16;83.56
31357;BME280;60001;48.404;11.738;2023-01-24T06:35:09;97673.28;;;2.18;83.41
31357;BME280;60001;48.404;11.738;2023-01-24T06:36:59;97679.81;;;2.23;83.16
31357;BME280;60001;48.404;11.738;2023-01-24T06:38:35;97680.94;;;2.04;83.68
31357;BME280;60001;48.404;11.738;2023-01-24T06:40:09;97680.94;;;2.04;83.52
31357;BME280;60001;48.404;11.738;2023-01-24T06:41:42;97681.28;;;2.09;83.93
31357;BME280;60001;48.404;11.738;2023-01-24T06:43:14;97682.09;;;2.09;83.37
31357;BME280;60001;48.404;11.738;2023-01-24T06:44:47;97684.53;;;2.11;83.60
31357;BME280;60001;48.404;11.738;2023-01-24T06:46:18;97688.25;;;2.08;83.18
31357;BME280;60001;48.404;11.738;2023-01-24T06:47:50;97689.91;;;2.09;83.15
31357;BME280;60001;48.404;11.738;2023-01-24T06:49:22;97681.56;;;2.14;83.34
31357;BME280;60001;48.404;11.738;2023-01-24T06:50:54;97677.34;;;2.13;83.43
31357;BME280;60001;48.404;11.738;2023-01-24T06:52:27;97683.03;;;2.08;83.41
31357;BME280;60001;48.404;11.738;2023-01-24T06:53:59;97685.16;;;2.13;83.70
31357;BME280;60001;48.404;11.738;2023-01-24T06:55:31;97689.41;;;1.98;84.51
31357;BME280;60001;48.404;11.738;2023-01-24T06:57:03;97686.47;;;2.01;84.37
31357;BME280;60001;48.404;11.738;2023-01-24T06:58:35;97673.13;;;1.96;83.94
31357;BME280;60001;48.404;11.738;2023-01-24T07:00:08;97690.22;;;2.06;84.07
31357;BME280;60001;48.404;11.738;2023-01-24T07:01:42;97695.41;;;2.14;84.42
31357;BME280;60001;48.404;11.738;2023-01-24T07:03:14;97692.97;;;2.13;83.66
31357;BME280;60001;48.404;11.738;2023-01-24T07:04:45;97702.94;;;2.17;83.97
31357;BME280;60001;48.404;11.738;2023-01-24T07:06:17;97700.66;;;2.23;83.90
31357;BME280;60001;48.404;11.738;2023-01-24T07:07:53;97698.34;;;2.28;83.75
31357;BME280;60001;48.404;11.738;2023-01-24T07:09:25;97694.75;;;2.29;83.06
31357;BME280;60001;48.404;11.738;2023-01-24T07:10:57;97701.63;;;2.30;83.46
31357;BME280;60001;48.404;11.738;2023-01-24T07:12:30;97704.38;;;2.28;83.15
31357;BME280;60001;48.404;11.738;2023-01-24T07:14:02;97700.31;;;2.26;83.09
31357;BME280;60001;48.404;11.738;2023-01-24T07:15:34;97711.38;;;2.28;82.65
31357;BME280;60001;48.404;11.738;2023-01-24T07:17:06;97695.72;;;2.28;83.58
31357;BME280;60001;48.404;11.738;2023-01-24T07:18:39;97704.06;;;2.31;83.34
31357;BME280;60001;48.404;11.738;2023-01-24T07:20:12;97698.66;;;2.33;83.17
31357;BME280;60001;48.404;11.738;2023-01-24T07:21:44;97708.75;;;2.36;83.41
31357;BME280;60001;48.404;11.738;2023-01-24T07:23:22;97699.66;;;2.32;82.79
31357;BME280;60001;48.404;11.738;2023-01-24T07:24:55;97710.91;;;2.24;83.10
31357;BME280;60001;48.404;11.738;2023-01-24T07:26:28;97709.56;;;2.28;82.92
31357;BME280;60001;48.404;11.738;2023-01-24T07:28:00;97714.16;;;2.26;83.12
31357;BME280;60001;48.404;11.738;2023-01-24T07:29:32;97711.06;;;2.23;83.38
31357;BME280;60001;48.404;11.738;2023-01-24T07:31:05;97718.72;;;2.24;83.54
31357;BME280;60001;48.404;11.738;2023-01-24T07:32:38;97712.34;;;2.27;83.43
31357;BME280;60001;48.404;11.738;2023-01-24T07:34:10;97707.63;;;2.22;83.22
31357;BME280;60001;48.404;11.738;2023-01-24T07:35:44;97724.41;;;2.28;83.33
31357;BME280;60001;48.404;11.738;2023-01-24T07:37:16;97720.50;;;2.32;83.20
31357;BME280;60001;48.404;11.738;2023-01-24T07:38:54;97714.13;;;2.34;82.88
31357;BME280;60001;48.404;11.738;2023-01-24T07:40:26;97723.09;;;2.32;83.37
31357;BME280;60001;48.404;11.738;2023-01-24T07:41:57;97718.06;;;2.30;83.19
31357;BME280;60001;48.404;11.738;2023-01-24T07:43:29;97727.16;;;2.34;83.33
31357;BME280;60001;48.404;11.738;2023-01-24T07:45:01;97724.91;;;2.23;83.05
31357;BME280;60001;48.404;11.738;2023-01-24T07:46:34;97731.25;;;2.20;83.72
31357;BME280;60001;48.404;11.738;2023-01-24T07:48:06;97730.59;;;2.18;82.92
31357;BME280;60001;48.404;11.738;2023-01-24T07:49:38;97737.28;;;2.21;83.67
31357;BME280;60001;48.404;11.738;2023-01-24T07:51:10;97732.88;;;2.22;83.81
31357;BME280;60001;48.404;11.738;2023-01-24T07:52:42;97737.13;;;2.23;83.35
31357;BME280;60001;48.404;11.738;2023-01-24T07:54:15;97733.72;;;2.30;83.68
31357;BME280;60001;48.404;11.738;2023-01-24T07:55:48;97739.56;;;2.32;83.53
31357;BME280;60001;48.404;11.738;2023-01-24T07:57:20;97734.50;;;2.31;82.95
31357;BME280;60001;48.404;11.738;2023-01-24T07:58:52;97738.56;;;2.33;83.64
31357;BME280;60001;48.404;11.738;2023-01-24T08:00:24;97742.66;;;2.28;83.60
31357;BME280;60001;48.404;11.738;2023-01-24T08:01:56;97739.88;;;2.21;83.29
31357;BME280;60001;48.404;11.738;2023-01-24T08:03:29;97738.41;;;2.27;83.64
31357;BME280;60001;48.404;11.738;2023-01-24T08:05:00;97747.38;;;2.24;83.17
31357;BME280;60001;48.404;11.738;2023-01-24T08:06:32;97747.22;;;2.26;83.90
31357;BME280;60001;48.404;11.738;2023-01-24T08:08:04;97740.03;;;2.28;83.78
31357;BME280;60001;48.404;11.738;2023-01-24T08:09:37;97748.84;;;2.35;83.29
31357;BME280;60001;48.404;11.738;2023-01-24T08:11:09;97752.25;;;2.35;83.69
31357;BME280;60001;48.404;11.738;2023-01-24T08:12:42;97752.25;;;2.35;83.48
31357;BME280;60001;48.404;11.738;2023-01-24T08:14:13;97749.81;;;2.34;83.38
31357;BME280;60001;48.404;11.738;2023-01-24T08:15:45;97750.16;;;2.31;82.88
31357;BME280;60001;48.404;11.738;2023-01-24T08:17:17;97758.63;;;2.33;83.74
31357;BME280;60001;48.404;11.738;2023-01-24T08:18:49;97755.50;;;2.29;83.67